createdAt,value
2022-11-29T00:00:53.737Z,81.13
2022-11-29T00:06:10.806Z,81.05
2022-11-29T00:11:37.418Z,81.11
2022-11-29T00:16:47.222Z,80.97
2022-11-29T00:21:56.894Z,80.44
2022-11-29T00:27:06.772Z,80.21
2022-11-29T00:32:16.565Z,80.36
2022-11-29T00:37:26.535Z,80.36
2022-11-29T00:42:36.125Z,80.03
2022-11-29T00:47:45.613Z,79.90
2022-11-29T00:52:55.112Z,80.01
2022-11-29T00:58:04.836Z,79.77
2022-11-29T01:03:14.908Z,79.71
2022-11-29T01:08:24.468Z,79.57
2022-11-29T01:13:34.329Z,79.15
2022-11-29T01:18:44.290Z,78.72
2022-11-29T01:23:54.962Z,78.63
2022-11-29T01:29:04.574Z,78.82
2022-11-29T01:34:15.785Z,78.98
2022-11-29T01:39:25.435Z,79.09
2022-11-29T01:45:08.141Z,79.00
2022-11-29T01:50:18.232Z,78.79
2022-11-29T01:55:28.364Z,78.63
2022-11-29T02:00:38.631Z,78.57
2022-11-29T02:05:52.643Z,78.71
2022-11-29T02:11:34.361Z,78.82
2022-11-29T02:16:56.879Z,78.81
2022-11-29T02:22:12.339Z,78.81
2022-11-29T02:28:17.390Z,78.83
2022-11-29T02:34:13.009Z,78.84
2022-11-29T02:39:53.714Z,78.89
2022-11-29T02:45:16.265Z,78.87
2022-11-29T02:50:42.435Z,78.97
2022-11-29T02:56:06.204Z,79.01
2022-11-29T03:01:26.181Z,79.07
2022-11-29T03:06:47.028Z,79.15
2022-11-29T03:12:09.497Z,79.20
2022-11-29T03:17:32.278Z,79.21
2022-11-29T03:23:01.281Z,79.28
2022-11-29T03:28:20.549Z,79.22
2022-11-29T03:33:46.057Z,79.29
2022-11-29T03:39:01.860Z,79.37
2022-11-29T03:44:17.702Z,79.37
2022-11-29T03:49:32.695Z,79.36
2022-11-29T03:55:04.355Z,79.27
2022-11-29T04:00:17.279Z,79.39
2022-11-29T04:06:20.610Z,79.38
2022-11-29T04:12:04.492Z,79.33
2022-11-29T04:18:13.421Z,79.41
2022-11-29T04:23:59.060Z,79.40
2022-11-29T04:29:32.133Z,79.48
2022-11-29T04:35:12.309Z,79.57
2022-11-29T04:40:49.556Z,79.56
2022-11-29T04:46:34.853Z,79.65
2022-11-29T04:52:22.057Z,79.68
2022-11-29T04:57:44.721Z,79.78
2022-11-29T05:03:01.036Z,79.93
2022-11-29T05:08:34.059Z,79.96
2022-11-29T05:14:10.056Z,80.11
2022-11-29T05:19:48.502Z,80.09
2022-11-29T05:25:14.155Z,80.19
2022-11-29T05:30:33.584Z,80.29
2022-11-29T05:36:15.396Z,80.32
2022-11-29T05:41:54.139Z,80.39
2022-11-29T05:47:06.087Z,80.38
2022-11-29T05:52:41.219Z,80.32
2022-11-29T05:58:00.398Z,80.34
2022-11-29T06:03:27.903Z,80.28
2022-11-29T06:08:48.056Z,80.30
2022-11-29T06:14:13.715Z,80.33
2022-11-29T06:19:50.447Z,80.32
2022-11-29T06:25:21.942Z,80.33
2022-11-29T06:30:50.587Z,80.19
2022-11-29T06:36:19.602Z,80.11
2022-11-29T06:41:31.386Z,80.09
2022-11-29T06:46:50.711Z,79.92
2022-11-29T06:52:16.850Z,79.76
2022-11-29T06:57:39.814Z,79.65
2022-11-29T07:03:19.311Z,79.64
2022-11-29T07:08:31.000Z,79.50
2022-11-29T07:13:42.575Z,79.45
2022-11-29T07:19:04.911Z,79.14
2022-11-29T07:24:33.448Z,79.15
2022-11-29T07:29:53.863Z,78.88
2022-11-29T07:35:15.809Z,78.83
2022-11-29T07:40:41.754Z,78.93
2022-11-29T07:45:51.317Z,78.81
2022-11-29T07:51:02.134Z,78.84
2022-11-29T07:56:12.755Z,78.88
2022-11-29T08:01:22.670Z,78.88
2022-11-29T08:06:32.336Z,78.74
2022-11-29T08:11:42.584Z,78.75
2022-11-29T08:16:52.348Z,78.63
2022-11-29T08:22:01.818Z,78.53
2022-11-29T08:27:11.604Z,78.32
2022-11-29T08:32:21.123Z,78.29
2022-11-29T08:37:31.088Z,78.06
2022-11-29T08:42:41.056Z,78.05
2022-11-29T08:47:51.614Z,78.04
2022-11-29T08:53:20.658Z,77.96
2022-11-29T08:58:30.618Z,77.92
2022-11-29T09:03:57.800Z,78.00
2022-11-29T09:09:08.307Z,78.00
2022-11-29T09:14:22.434Z,77.97
2022-11-29T09:19:32.535Z,77.96
2022-11-29T09:24:42.335Z,77.95
2022-11-29T09:29:51.997Z,78.00
2022-11-29T09:35:01.651Z,77.86
2022-11-29T09:40:20.946Z,77.85
2022-11-29T09:45:38.214Z,77.68
2022-11-29T09:50:53.597Z,77.73
2022-11-29T09:56:17.915Z,77.82
2022-11-29T10:01:32.874Z,77.89
2022-11-29T10:06:51.809Z,77.71
2022-11-29T10:12:14.439Z,77.79
2022-11-29T10:17:37.825Z,77.82
2022-11-29T10:22:54.856Z,77.63
2022-11-29T10:28:05.438Z,77.63
2022-11-29T10:33:25.704Z,77.63
2022-11-29T10:38:35.957Z,77.56
2022-11-29T10:43:45.579Z,77.78
2022-11-29T10:48:56.546Z,77.71
2022-11-29T10:54:24.969Z,77.49
2022-11-29T10:59:36.065Z,77.60
2022-11-29T11:04:50.961Z,77.74
2022-11-29T11:10:03.066Z,77.37
2022-11-29T11:15:34.152Z,77.40
2022-11-29T11:20:53.128Z,77.56
2022-11-29T11:26:05.947Z,77.54
2022-11-29T11:31:17.408Z,77.51
2022-11-29T11:36:30.502Z,77.39
2022-11-29T11:42:00.072Z,77.21
2022-11-29T11:47:15.696Z,77.39
2022-11-29T11:52:30.674Z,77.37
2022-11-29T11:57:40.351Z,77.56
2022-11-29T12:02:50.067Z,77.53
2022-11-29T12:08:08.426Z,77.41
2022-11-29T12:13:26.967Z,77.28
2022-11-29T12:18:48.982Z,77.28
2022-11-29T12:24:06.438Z,77.27
2022-11-29T12:29:22.558Z,77.06
2022-11-29T12:35:00.934Z,77.02
2022-11-29T12:40:24.281Z,77.19
2022-11-29T12:45:49.700Z,77.15
2022-11-29T12:51:09.981Z,77.18
2022-11-29T12:56:35.516Z,77.23
2022-11-29T13:02:06.313Z,77.24
2022-11-29T13:07:28.375Z,77.35
2022-11-29T13:12:44.116Z,77.49
2022-11-29T13:18:04.846Z,77.50
2022-11-29T13:23:46.213Z,77.41
2022-11-29T13:28:59.375Z,77.57
2022-11-29T13:34:16.152Z,77.71
2022-11-29T13:39:48.542Z,77.75
2022-11-29T13:45:16.159Z,77.75
2022-11-29T13:50:51.201Z,77.92
2022-11-29T13:56:03.111Z,77.90
2022-11-29T14:01:15.802Z,77.94
2022-11-29T14:06:35.887Z,78.06
2022-11-29T14:11:54.010Z,78.36
2022-11-29T14:17:07.842Z,78.40
2022-11-29T14:22:33.628Z,78.43
2022-11-29T14:28:28.816Z,78.40
2022-11-29T14:34:02.942Z,78.58
2022-11-29T14:39:35.818Z,78.66
2022-11-29T14:44:53.635Z,78.60
2022-11-29T14:50:09.510Z,78.46
2022-11-29T14:55:38.505Z,78.53
2022-11-29T15:01:11.339Z,78.54
2022-11-29T15:06:32.582Z,78.57
2022-11-29T15:11:53.580Z,78.54
2022-11-29T15:17:28.430Z,78.42
2022-11-29T15:22:52.841Z,78.47
2022-11-29T15:28:05.931Z,78.46
2022-11-29T15:33:26.860Z,78.52
2022-11-29T15:38:48.042Z,78.56
2022-11-29T15:44:00.244Z,78.58
2022-11-29T15:49:26.463Z,78.54
2022-11-29T15:54:44.008Z,78.62
2022-11-29T15:59:57.259Z,78.47
2022-11-29T16:05:19.345Z,78.44
2022-11-29T16:10:36.272Z,78.38
2022-11-29T16:15:46.495Z,78.36
2022-11-29T16:21:07.048Z,78.33
2022-11-29T16:26:21.129Z,78.33
2022-11-29T16:31:38.456Z,78.33
2022-11-29T16:36:47.955Z,78.00
2022-11-29T16:42:24.672Z,77.99
2022-11-29T16:47:52.587Z,78.00
2022-11-29T16:53:47.917Z,77.96
2022-11-29T16:59:24.952Z,77.96
2022-11-29T17:04:34.144Z,77.82
2022-11-29T17:09:44.645Z,77.71
2022-11-29T17:14:54.263Z,77.47
2022-11-29T17:20:04.402Z,77.66
2022-11-29T17:25:15.266Z,77.54
2022-11-29T17:30:25.514Z,77.63
2022-11-29T17:35:37.969Z,77.47
2022-11-29T17:40:47.756Z,77.47
2022-11-29T17:45:57.679Z,77.43
2022-11-29T17:51:22.827Z,77.40
2022-11-29T17:56:38.732Z,77.35
2022-11-29T18:01:48.372Z,77.39
2022-11-29T18:06:58.940Z,77.18
2022-11-29T18:12:08.616Z,77.22
2022-11-29T18:17:18.365Z,77.13
2022-11-29T18:22:28.295Z,77.24
2022-11-29T18:27:37.831Z,77.15
2022-11-29T18:32:47.398Z,77.11
2022-11-29T18:38:14.718Z,77.07
2022-11-29T18:43:25.310Z,77.13
2022-11-29T18:48:36.810Z,77.14
2022-11-29T18:53:47.646Z,77.17
2022-11-29T18:59:02.114Z,76.96
2022-11-29T19:04:14.815Z,76.96
2022-11-29T19:09:25.360Z,77.02
2022-11-29T19:14:34.848Z,77.02
2022-11-29T19:19:44.680Z,77.11
2022-11-29T19:24:55.759Z,77.07
2022-11-29T19:30:05.422Z,76.99
2022-11-29T19:35:15.156Z,76.89
2022-11-29T19:40:24.569Z,76.93
2022-11-29T19:45:34.119Z,76.88
2022-11-29T19:50:43.681Z,76.89
2022-11-29T19:55:53.195Z,76.91
2022-11-29T20:01:09.812Z,76.86
2022-11-29T20:06:20.363Z,76.81
2022-11-29T20:11:30.377Z,76.88
2022-11-29T20:16:40.336Z,76.86
2022-11-29T20:21:51.357Z,76.74
2022-11-29T20:27:00.687Z,76.76
2022-11-29T20:32:10.680Z,76.83
2022-11-29T20:37:39.992Z,76.83
2022-11-29T20:43:04.827Z,76.76
2022-11-29T20:48:24.194Z,76.66
2022-11-29T20:53:41.542Z,76.68
2022-11-29T20:58:51.532Z,76.57
2022-11-29T21:04:01.039Z,76.56
2022-11-29T21:09:11.622Z,76.57
2022-11-29T21:14:23.158Z,76.61
2022-11-29T21:19:33.948Z,76.50
2022-11-29T21:24:55.155Z,76.54
2022-11-29T21:30:08.610Z,76.65
2022-11-29T21:35:18.956Z,76.67
2022-11-29T21:40:29.222Z,76.82
2022-11-29T21:45:38.859Z,76.94
2022-11-29T21:50:52.351Z,76.98
2022-11-29T21:56:05.465Z,77.00
2022-11-29T22:01:18.456Z,77.06
2022-11-29T22:06:29.580Z,77.11
2022-11-29T22:11:39.105Z,77.18
2022-11-29T22:16:51.757Z,77.15
2022-11-29T22:22:03.746Z,77.17
2022-11-29T22:27:13.129Z,77.15
2022-11-29T22:32:22.844Z,77.20
2022-11-29T22:37:32.298Z,77.14
2022-11-29T22:42:43.416Z,77.20
2022-11-29T22:47:52.759Z,77.13
2022-11-29T22:53:02.020Z,77.15
2022-11-29T22:58:11.365Z,77.17
2022-11-29T23:03:20.802Z,77.24
2022-11-29T23:08:33.466Z,77.32
2022-11-29T23:13:44.437Z,77.38
2022-11-29T23:18:54.199Z,77.37
2022-11-29T23:24:04.408Z,77.36
2022-11-29T23:29:17.505Z,77.43
2022-11-29T23:34:27.064Z,77.57
2022-11-29T23:39:36.730Z,77.64
2022-11-29T23:44:46.423Z,77.60
2022-11-29T23:49:55.928Z,77.49
2022-11-29T23:55:05.775Z,77.52
